Time;durP1;ratioP1;P1;durP2;ratioP2;P2;SDS_P1;SDS_P2;PMS_P1;PMS_P2;Temp;Humidity;BMP_temperature;BMP_pressure;BME280_temperature;BME280_humidity;BME280_pressure;Samples;Min_cycle;Max_cycle;Signal;HPM_P1;HPM_P2
2021/01/16 09:08:21;;;;;;;5.43;4.30;;;;;;;21.06;45.53;99345.75;20987548;27;72559;-67
2021/01/16 09:33:41;;;;;;;3.43;3.10;;;;;;;22.40;44.07;99343.56;21299962;27;20729;-67
2021/01/16 09:43:43;;;;;;;3.20;2.90;;;;;;;22.62;44.11;99357.09;21248788;27;20274;-66
2021/01/16 09:53:45;;;;;;;3.33;3.03;;;;;;;22.72;43.94;99353.38;21235186;27;20263;-67
2021/01/16 10:07:58;;;;;;;2.50;2.30;;;;;;;22.76;44.12;99339.00;20887267;28;20734;-69
2021/01/16 10:18:00;;;;;;;2.03;1.93;;;;;;;22.76;44.08;99332.97;20881021;28;21016;-68
2021/01/16 10:28:02;;;;;;;2.17;1.73;;;;;;;22.76;44.34;99315.50;20882848;28;20243;-70
2021/01/16 10:38:04;;;;;;;2.50;2.30;;;;;;;22.74;44.71;99293.91;20872030;28;20235;-68
2021/01/16 10:48:17;;;;;;;2.50;2.30;;;;;;;22.73;44.70;99291.47;20873265;28;20236;-68
2021/01/16 10:58:21;;;;;;;3.10;2.70;;;;;;;22.78;44.84;99273.50;20857120;28;20369;-70
2021/01/16 11:08:27;;;;;;;3.13;2.33;;;;;;;22.83;45.00;99271.25;20943114;28;20217;-67
2021/01/16 11:18:34;;;;;;;2.37;2.10;;;;;;;22.93;44.87;99245.78;20880764;28;20584;-65
2021/01/16 11:28:50;;;;;;;2.20;1.60;;;;;;;23.40;43.96;99244.19;20856704;28;20772;-65
2021/01/16 11:38:52;;;;;;;1.80;1.57;;;;;;;23.14;44.40;99243.53;20852495;28;20318;-66
2021/01/16 11:48:54;;;;;;;1.63;1.53;;;;;;;23.12;44.68;99235.00;20852848;28;20292;-68
2021/01/16 11:58:56;;;;;;;1.83;1.70;;;;;;;23.12;44.81;99224.56;20850661;28;20303;-69
2021/01/16 12:08:58;;;;;;;1.10;1.00;;;;;;;23.09;44.98;99214.44;20843183;28;20248;-68
2021/01/16 12:19:00;;;;;;;1.30;1.20;;;;;;;23.07;44.84;99198.09;20848347;28;20303;-68
2021/01/16 12:29:02;;;;;;;1.13;1.03;;;;;;;23.04;45.22;99183.53;20838906;28;20320;-66
2021/01/16 12:39:04;;;;;;;1.70;1.50;;;;;;;23.07;45.16;99174.56;20839457;28;20375;-65
2021/01/16 12:49:11;;;;;;;1.57;1.37;;;;;;;23.15;44.56;99171.94;20843110;28;20323;-69
2021/01/16 12:59:14;;;;;;;1.40;1.30;;;;;;;23.19;44.77;99168.00;20845777;28;20303;-68
2021/01/16 13:09:16;;;;;;;2.17;1.30;;;;;;;23.20;44.66;99148.72;20829271;28;20401;-68
2021/01/16 13:19:18;;;;;;;3.10;2.90;;;;;;;23.00;40.21;99139.59;20841343;28;20307;-68
2021/01/16 13:29:20;;;;;;;2.20;2.10;;;;;;;22.54;39.70;99137.63;20825297;28;20292;-68
2021/01/16 13:39:22;;;;;;;4.37;2.93;;;;;;;22.53;40.92;99131.56;20835316;28;20367;-68
2021/01/16 13:49:25;;;;;;;11.40;4.13;;;;;;;22.79;41.15;99134.03;20837668;28;20319;-68
2021/01/16 13:59:28;;;;;;;9.20;3.40;;;;;;;23.02;41.30;99129.78;20839690;28;20788;-68
2021/01/16 14:09:31;;;;;;;8.17;4.10;;;;;;;23.19;41.48;99128.78;20827074;28;20251;-68
2021/01/16 14:19:32;;;;;;;3.30;2.47;;;;;;;23.20;41.88;99143.47;20816167;28;20308;-67
2021/01/16 14:29:44;;;;;;;4.47;2.53;;;;;;;23.19;42.08;99131.41;20834248;28;20311;-68
2021/01/16 14:39:45;;;;;;;2.97;1.93;;;;;;;23.15;42.29;99136.16;20832839;28;20378;-68
2021/01/16 14:49:48;;;;;;;3.50;1.73;;;;;;;23.11;42.45;99139.22;20834650;28;20378;-68
2021/01/16 14:59:49;;;;;;;2.03;1.50;;;;;;;23.06;42.92;99124.06;20849828;28;20359;-69
2021/01/16 15:09:56;;;;;;;2.27;1.47;;;;;;;23.00;42.83;99108.22;20844830;28;20699;-66
2021/01/16 15:19:57;;;;;;;2.27;1.67;;;;;;;22.93;43.07;99099.38;20849293;28;20307;-67
2021/01/16 15:30:06;;;;;;;2.23;1.37;;;;;;;22.88;43.16;99096.47;20845364;28;20332;-67
2021/01/16 15:40:09;;;;;;;4.30;1.53;;;;;;;22.83;43.38;99098.75;20848256;28;20307;-66
2021/01/16 15:50:12;;;;;;;3.33;1.50;;;;;;;22.80;43.52;99083.41;20847643;28;20297;-67
2021/01/16 16:00:19;;;;;;;4.07;1.50;;;;;;;22.79;43.61;99087.81;20845404;28;20328;-66
2021/01/16 16:10:22;;;;;;;2.87;1.93;;;;;;;22.80;43.49;99075.56;20856448;28;20216;-66
2021/01/16 16:20:23;;;;;;;2.80;1.50;;;;;;;22.82;43.57;99065.75;20849405;28;20275;-66
2021/01/16 16:30:26;;;;;;;4.40;1.80;;;;;;;22.80;43.71;99045.03;20804183;28;143446;-67
2021/01/16 16:40:29;;;;;;;3.70;2.10;;;;;;;22.81;44.15;99045.81;20773414;28;20311;-66
2021/01/16 16:50:31;;;;;;;3.40;1.70;;;;;;;22.80;44.05;99028.53;20782128;28;21250;-67
2021/01/16 17:00:33;;;;;;;2.53;1.80;;;;;;;22.79;44.33;99024.28;20783447;28;20726;-66
2021/01/16 17:10:37;;;;;;;5.53;2.70;;;;;;;22.78;44.70;99018.25;20806652;28;20291;-66
2021/01/16 17:20:39;;;;;;;7.17;2.70;;;;;;;22.84;44.80;99006.31;20802246;28;20217;-66
2021/01/16 17:30:42;;;;;;;5.60;3.00;;;;;;;23.01;44.52;99006.09;20814220;28;20222;-69
2021/01/16 17:40:43;;;;;;;5.50;3.10;;;;;;;23.13;44.71;99009.16;20812497;28;20229;-65
2021/01/16 17:50:46;;;;;;;4.63;3.03;;;;;;;23.14;44.78;98993.28;20814242;28;20290;-65
2021/01/16 18:00:47;;;;;;;5.20;3.20;;;;;;;23.12;44.84;98989.22;20813686;28;20634;-65
2021/01/16 18:10:53;;;;;;;4.03;3.07;;;;;;;23.06;44.62;98987.28;20812356;28;20221;-65
2021/01/16 18:20:56;;;;;;;2.70;2.47;;;;;;;22.98;44.92;98979.47;20800519;28;20275;-66
2021/01/16 18:30:58;;;;;;;6.10;3.10;;;;;;;22.95;45.11;98969.34;20819821;28;20206;-66
2021/01/16 18:41:00;;;;;;;4.90;3.30;;;;;;;22.93;45.68;98959.06;20817418;28;20287;-67
2021/01/16 18:51:02;;;;;;;5.03;2.93;;;;;;;22.95;45.89;98943.22;20801850;28;20669;-66
2021/01/16 19:01:04;;;;;;;4.90;2.93;;;;;;;22.96;45.82;98942.22;20822238;28;20237;-66
2021/01/16 19:11:07;;;;;;;6.80;3.83;;;;;;;22.94;45.96;98939.78;20823708;28;20293;-66
2021/01/16 19:21:09;;;;;;;4.50;2.50;;;;;;;22.92;46.17;98925.25;20805871;28;20282;-67
2021/01/16 19:31:12;;;;;;;3.07;2.53;;;;;;;22.90;46.05;98922.00;20813732;28;20252;-67
2021/01/16 19:41:13;;;;;;;4.97;2.93;;;;;;;22.87;45.93;98909.28;20801601;28;20307;-66
2021/01/16 19:51:16;;;;;;;4.23;2.97;;;;;;;22.90;45.80;98908.94;20794486;28;20245;-67
2021/01/16 20:01:18;;;;;;;3.13;2.80;;;;;;;22.74;44.22;98896.72;20795597;28;20315;-69
2021/01/16 20:11:20;;;;;;;3.13;2.93;;;;;;;22.72;43.68;98887.44;20794213;28;20313;-66
2021/01/16 20:21:22;;;;;;;5.17;2.67;;;;;;;22.74;43.85;98870.59;20791597;28;20571;-67
2021/01/16 20:31:25;;;;;;;2.90;2.60;;;;;;;22.86;44.11;98865.81;20786815;28;20256;-66
2021/01/16 20:41:26;;;;;;;2.60;2.40;;;;;;;22.94;44.41;98852.72;20789530;28;20320;-67
2021/01/16 20:51:31;;;;;;;2.57;1.87;;;;;;;22.94;44.55;98850.13;20781405;28;20244;-67
2021/01/16 21:01:35;;;;;;;1.70;1.60;;;;;;;22.98;44.85;98843.53;20764537;28;20307;-66
2021/01/16 21:11:41;;;;;;;5.50;1.77;;;;;;;23.00;44.80;98839.78;20762484;28;20259;-68
2021/01/16 21:21:42;;;;;;;2.37;1.30;;;;;;;22.97;44.74;98819.22;20756433;28;20379;-68
2021/01/16 21:31:45;;;;;;;1.50;1.40;;;;;;;22.98;44.96;98809.56;20770375;28;20209;-66
2021/01/16 21:41:47;;;;;;;1.93;1.80;;;;;;;22.96;45.11;98790.63;20777527;28;20977;-67
2021/01/16 21:51:50;;;;;;;2.23;1.80;;;;;;;23.04;45.04;98794.00;20780164;28;20205;-68
2021/01/16 22:01:51;;;;;;;2.47;1.50;;;;;;;23.08;45.15;98789.25;20785027;28;20267;-68
2021/01/16 22:11:56;;;;;;;1.83;1.40;;;;;;;23.06;45.28;98776.34;20790382;28;21224;-67
2021/01/16 22:21:57;;;;;;;1.40;1.30;;;;;;;23.06;45.41;98771.13;20788508;28;20570;-67
2021/01/16 22:32:00;;;;;;;1.60;1.30;;;;;;;23.05;45.50;98760.84;20792376;28;20205;-67
2021/01/16 22:42:06;;;;;;;1.03;1.00;;;;;;;23.03;45.44;98744.50;20792720;28;20343;-68
2021/01/16 22:52:09;;;;;;;1.50;1.30;;;;;;;23.05;45.64;98738.13;20788944;28;20213;-70
2021/01/16 23:02:11;;;;;;;1.30;1.20;;;;;;;23.03;45.72;98702.69;20793375;28;20283;-67
